Time;durP1;ratioP1;P1;durP2;ratioP2;P2;SDS_P1;SDS_P2;PMS_P1;PMS_P2;Temp;Humidity;BMP_temperature;BMP_pressure;BME280_temperature;BME280_humidity;BME280_pressure;Samples;Min_cycle;Max_cycle;Signal;HPM_P1;HPM_P2
2023/02/03 00:02:01;;;;;;;10.82;4.25;;;;;;;9.97;100.00;102423.97;5255313;28;20123;-77
2023/02/03 00:04:32;;;;;;;12.48;4.32;;;;;;;9.98;100.00;102421.25;5254585;28;20028;-77
2023/02/03 00:07:04;;;;;;;14.10;4.75;;;;;;;9.92;100.00;102403.25;5255471;28;20152;-77
2023/02/03 00:09:35;;;;;;;10.43;3.95;;;;;;;9.99;100.00;102424.72;5255782;28;20025;-77
2023/02/03 00:12:07;;;;;;;14.35;4.40;;;;;;;10.01;100.00;102424.63;5258910;28;20044;-77
2023/02/03 00:14:39;;;;;;;9.90;3.83;;;;;;;10.01;100.00;102427.25;5259360;28;20362;-77
2023/02/03 00:17:10;;;;;;;12.55;3.88;;;;;;;10.01;100.00;102420.25;5259092;28;20031;-77
2023/02/03 00:19:41;;;;;;;8.02;3.83;;;;;;;10.02;100.00;102429.78;5260327;28;20028;-77
2023/02/03 00:22:12;;;;;;;9.93;3.70;;;;;;;10.03;100.00;102438.47;5258149;28;20036;-77
2023/02/03 00:24:44;;;;;;;9.23;3.88;;;;;;;10.04;100.00;102442.78;5258470;28;20056;-77
2023/02/03 00:27:15;;;;;;;9.57;4.18;;;;;;;10.06;100.00;102441.75;5258806;28;20025;-77
2023/02/03 00:29:46;;;;;;;9.05;4.22;;;;;;;10.03;100.00;102449.78;5255342;28;20470;-77
2023/02/03 00:32:18;;;;;;;8.40;4.03;;;;;;;10.04;100.00;102445.38;5259507;28;20474;-77
2023/02/03 00:34:49;;;;;;;10.77;3.60;;;;;;;10.03;100.00;102455.03;5256976;28;20390;-77
2023/02/03 00:37:21;;;;;;;10.63;3.95;;;;;;;10.06;100.00;102448.78;5257702;28;20573;-77
2023/02/03 00:39:53;;;;;;;12.23;3.88;;;;;;;10.05;100.00;102457.56;5257367;28;20422;-76
2023/02/03 00:42:24;;;;;;;10.18;4.22;;;;;;;10.05;100.00;102461.03;5258625;28;20029;-77
2023/02/03 00:44:55;;;;;;;11.07;4.13;;;;;;;10.06;100.00;102459.25;5257413;28;20108;-77
2023/02/03 00:47:27;;;;;;;9.57;4.20;;;;;;;10.05;100.00;102447.09;5257147;28;20033;-77
2023/02/03 00:49:58;;;;;;;10.90;3.63;;;;;;;10.06;100.00;102443.53;5256687;28;20037;-77
2023/02/03 00:52:29;;;;;;;10.93;3.90;;;;;;;10.07;100.00;102442.59;5256796;28;20471;-77
2023/02/03 00:55:01;;;;;;;11.60;4.60;;;;;;;9.97;100.00;102434.44;5258131;28;20029;-77
2023/02/03 00:57:32;;;;;;;12.85;4.72;;;;;;;10.07;100.00;102453.91;5257431;28;20068;-77
2023/02/03 01:00:04;;;;;;;15.07;4.50;;;;;;;10.06;100.00;102457.47;5257372;28;20028;-77
2023/02/03 01:02:36;;;;;;;8.52;4.22;;;;;;;10.05;100.00;102457.56;5258085;28;20458;-77
2023/02/03 01:05:07;;;;;;;9.70;4.00;;;;;;;10.03;100.00;102462.88;5257332;28;20029;-77
2023/02/03 01:07:38;;;;;;;11.88;4.30;;;;;;;10.08;100.00;102478.34;5255578;28;20036;-77
2023/02/03 01:10:10;;;;;;;11.43;3.90;;;;;;;10.11;100.00;102467.69;5256667;28;20068;-77
2023/02/03 01:12:41;;;;;;;14.88;4.63;;;;;;;10.08;100.00;102479.19;5255062;28;20016;-77
2023/02/03 01:15:12;;;;;;;12.05;4.18;;;;;;;10.09;100.00;102482.66;5258232;28;20505;-77
2023/02/03 01:17:44;;;;;;;11.68;4.18;;;;;;;10.10;100.00;102479.94;5256737;28;20115;-77
2023/02/03 01:20:15;;;;;;;9.65;3.90;;;;;;;10.06;100.00;102480.19;5256651;28;20491;-77
2023/02/03 01:22:47;;;;;;;10.73;3.63;;;;;;;10.12;100.00;102485.94;5256823;28;20048;-76
2023/02/03 01:25:18;;;;;;;9.02;3.20;;;;;;;10.09;100.00;102477.41;5257290;28;20021;-77
2023/02/03 01:27:50;;;;;;;6.85;3.05;;;;;;;10.14;100.00;102475.38;5257707;28;20009;-77
2023/02/03 01:30:21;;;;;;;10.82;3.30;;;;;;;10.10;100.00;102472.06;5256884;28;20033;-77
2023/02/03 01:32:52;;;;;;;10.18;3.50;;;;;;;10.14;100.00;102451.78;5257259;28;20539;-77
2023/02/03 01:35:24;;;;;;;7.47;3.63;;;;;;;10.10;100.00;102458.97;5257492;28;20060;-77
2023/02/03 01:37:55;;;;;;;9.35;3.05;;;;;;;10.11;100.00;102451.97;5254789;28;20056;-77
2023/02/03 01:40:26;;;;;;;7.50;2.75;;;;;;;10.04;100.00;102437.53;5256120;28;20246;-77
2023/02/03 01:42:57;;;;;;;11.15;3.53;;;;;;;10.17;100.00;102454.25;5256594;28;20029;-76
2023/02/03 01:45:29;;;;;;;9.52;3.28;;;;;;;10.07;100.00;102446.06;5256597;28;20494;-77
2023/02/03 01:48:00;;;;;;;8.55;3.05;;;;;;;10.11;100.00;102449.34;5255333;28;20071;-77
2023/02/03 01:50:36;;;;;;;7.80;3.10;;;;;;;10.16;100.00;102436.84;5256368;28;20037;-77
2023/02/03 01:53:11;;;;;;;8.10;2.85;;;;;;;10.13;100.00;102450.97;5272150;28;20057;-77
2023/02/03 01:55:47;;;;;;;11.48;3.47;;;;;;;10.17;100.00;102447.22;5256660;28;20509;-77
2023/02/03 01:58:30;;;;;;;10.45;2.85;;;;;;;10.23;100.00;102448.66;5256194;28;20028;-77
2023/02/03 02:01:01;;;;;;;6.22;2.80;;;;;;;10.08;100.00;102432.06;5255974;28;20033;-77
2023/02/03 02:03:47;;;;;;;12.68;3.22;;;;;;;10.25;100.00;102436.34;5257360;28;20035;-76
2023/02/03 02:06:19;;;;;;;9.55;3.00;;;;;;;10.08;100.00;102432.06;5256370;28;20336;-77
2023/02/03 02:08:52;;;;;;;9.15;3.03;;;;;;;10.11;100.00;102421.38;5254124;28;20075;-77
2023/02/03 02:11:23;;;;;;;;;;;;;;;10.62;100.00;102408.81;5256098;28;20032;-77
2023/02/03 02:13:59;;;;;;;8.00;2.17;;;;;;;10.14;100.00;102386.31;5256051;28;20274;-77
2023/02/03 02:16:39;;;;;;;7.80;2.42;;;;;;;10.08;100.00;102395.41;5255546;28;20274;-77
2023/02/03 02:19:51;;;;;;;6.43;2.25;;;;;;;10.16;100.00;102408.88;5255264;28;20033;-77
2023/02/03 02:22:27;;;;;;;8.98;2.20;;;;;;;10.07;100.00;102411.19;5255879;28;20032;-77
2023/02/03 02:25:30;;;;;;;9.07;2.58;;;;;;;10.23;100.00;102427.72;5255732;28;20393;-76
2023/02/03 02:28:29;;;;;;;9.43;2.03;;;;;;;10.27;100.00;102428.41;5254544;28;20028;-77
2023/02/03 02:31:15;;;;;;;7.95;2.15;;;;;;;10.22;100.00;102424.22;5255916;28;20033;-76
2023/02/03 02:34:07;;;;;;;5.22;2.03;;;;;;;10.30;100.00;102425.59;5255661;28;20358;-77
2023/02/03 02:36:53;;;;;;;8.32;2.08;;;;;;;10.17;100.00;102420.19;5254298;28;20512;-76
2023/02/03 02:39:37;;;;;;;7.43;2.25;;;;;;;10.18;100.00;102420.09;5256333;28;20028;-77
2023/02/03 02:42:36;;;;;;;5.45;2.10;;;;;;;10.37;100.00;102433.00;5255388;28;20610;-76
2023/02/03 02:45:15;;;;;;;7.88;1.80;;;;;;;10.18;100.00;102434.97;5256087;28;20028;-77
2023/02/03 02:47:48;;;;;;;8.30;2.70;;;;;;;10.18;100.00;102453.31;5255736;28;20056;-77
2023/02/03 02:50:25;;;;;;;5.63;1.65;;;;;;;10.24;100.00;102438.09;5255206;28;20629;-77
2023/02/03 02:52:57;;;;;;;7.88;2.10;;;;;;;10.11;100.00;102433.63;5254495;28;20033;-77
2023/02/03 02:55:32;;;;;;;7.88;2.22;;;;;;;10.17;100.00;102415.81;5253714;28;20021;-77
2023/02/03 02:58:08;;;;;;;6.47;1.70;;;;;;;10.21;100.00;102422.53;5255230;28;20029;-77
2023/02/03 03:00:41;;;;;;;6.13;2.10;;;;;;;10.18;100.00;102412.25;5254191;28;20106;-76
2023/02/03 03:03:19;;;;;;;7.18;1.98;;;;;;;10.29;100.00;102416.88;5254234;28;20158;-76
2023/02/03 03:05:54;;;;;;;6.43;1.70;;;;;;;10.26;100.00;102424.09;5254978;28;20071;-77
2023/02/03 03:08:56;;;;;;;8.27;1.98;;;;;;;10.50;100.00;102421.81;5254702;28;20029;-77
2023/02/03 03:11:30;;;;;;;5.90;1.90;;;;;;;10.32;100.00;102435.06;5254642;28;20102;-77
2023/02/03 03:14:05;;;;;;;5.57;2.08;;;;;;;10.30;100.00;102426.44;5255132;28;20055;-77
2023/02/03 03:16:39;;;;;;;5.68;1.50;;;;;;;10.31;100.00;102424.69;5254624;28;20029;-76
2023/02/03 03:19:16;;;;;;;4.53;1.77;;;;;;;10.39;100.00;102411.97;5255405;28;20135;-77
2023/02/03 03:21:52;;;;;;;6.97;1.85;;;;;;;10.43;100.00;102411.69;5253503;28;20029;-77
2023/02/03 03:24:28;;;;;;;5.88;2.15;;;;;;;10.33;100.00;102405.28;5254908;28;20504;-77
2023/02/03 03:27:16;;;;;;;6.20;1.70;;;;;;;10.45;100.00;102403.72;5255108;28;20501;-77
2023/02/03 03:29:55;;;;;;;4.80;1.67;;;;;;;10.44;100.00;102408.13;5246161;28;20032;-77
2023/02/03 03:32:29;;;;;;;6.00;1.60;;;;;;;10.34;100.00;102416.63;5254613;28;20029;-77
2023/02/03 03:35:02;;;;;;;5.03;1.88;;;;;;;10.27;100.00;102389.97;5254975;28;20043;-77
2023/02/03 03:37:42;;;;;;;4.53;1.60;;;;;;;10.36;100.00;102389.41;5254978;28;20116;-77
2023/02/03 03:40:22;;;;;;;8.38;2.08;;;;;;;10.41;100.00;102404.84;5253299;28;20045;-77
2023/02/03 03:43:17;;;;;;;6.45;2.22;;;;;;;10.42;100.00;102382.97;5255374;28;20087;-77
2023/02/03 03:45:57;;;;;;;5.03;1.80;;;;;;;10.41;100.00;102376.03;5257934;28;20036;-77
2023/02/03 03:48:34;;;;;;;6.35;1.75;;;;;;;10.28;100.00;102375.09;5258070;28;20025;-77
2023/02/03 03:51:12;;;;;;;5.60;1.40;;;;;;;10.38;100.00;102379.69;5256677;28;20033;-77
2023/02/03 03:53:46;;;;;;;5.10;1.58;;;;;;;10.30;100.00;102374.03;5258775;28;20184;-77
2023/02/03 03:56:25;;;;;;;4.45;1.63;;;;;;;10.31;100.00;102388.00;5258012;28;20028;-77
2023/02/03 03:58:59;;;;;;;7.40;1.80;;;;;;;10.32;100.00;102408.03;5254195;28;20033;-77
2023/02/03 04:01:31;;;;;;;6.90;1.52;;;;;;;10.27;100.00;102397.81;5253855;28;20029;-77
2023/02/03 04:04:06;;;;;;;8.27;1.90;;;;;;;10.36;100.00;102397.25;5259036;28;20536;-77
2023/02/03 04:06:38;;;;;;;4.20;1.40;;;;;;;10.39;100.00;102409.34;5257634;28;20035;-78
2023/02/03 04:09:09;;;;;;;8.48;1.75;;;;;;;10.37;100.00;102408.59;5257733;28;20029;-78
2023/02/03 04:14:34;;;;;;;4.82;1.42;;;;;;;10.37;100.00;102416.44;5258789;28;20037;-77
2023/02/03 04:17:05;;;;;;;6.00;1.30;;;;;;;10.36;100.00;102418.22;5273096;28;20044;-77
2023/02/03 04:19:37;;;;;;;6.13;1.80;;;;;;;10.30;100.00;102402.84;5257078;28;20449;-78
2023/02/03 04:22:08;;;;;;;5.63;1.48;;;;;;;10.37;100.00;102438.25;5257466;28;20048;-77
2023/02/03 04:24:39;;;;;;;4.90;1.20;;;;;;;10.44;100.00;102429.09;5258340;28;20474;-77
2023/02/03 04:27:10;;;;;;;6.88;1.38;;;;;;;10.39;100.00;102436.38;5257508;28;20397;-77
2023/02/03 04:29:42;;;;;;;4.38;1.33;;;;;;;10.44;100.00;102430.88;5257594;28;20112;-77
2023/02/03 04:32:13;;;;;;;5.95;1.50;;;;;;;10.40;100.00;102427.59;5258318;28;20021;-77
2023/02/03 04:34:45;;;;;;;3.45;1.00;;;;;;;10.42;100.00;102449.31;5257692;28;20060;-77
2023/02/03 04:37:17;;;;;;;4.38;1.13;;;;;;;10.36;100.00;102415.59;5258524;28;20025;-77
2023/02/03 04:39:51;;;;;;;4.78;1.33;;;;;;;10.46;100.00;102444.75;5256828;28;20047;-77
2023/02/03 04:42:23;;;;;;;6.75;1.73;;;;;;;10.44;100.00;102423.84;5257434;28;20397;-77
2023/02/03 04:44:54;;;;;;;5.68;1.20;;;;;;;10.40;100.00;102419.72;5257702;28;20021;-77
2023/02/03 04:47:25;;;;;;;5.20;1.00;;;;;;;10.38;100.00;102421.59;5257835;28;20894;-77
2023/02/03 04:49:56;;;;;;;4.75;1.30;;;;;;;10.40;100.00;102427.59;5255379;28;20021;-77
2023/02/03 04:52:28;;;;;;;5.47;1.20;;;;;;;10.41;100.00;102405.69;5257955;28;20134;-77
2023/02/03 04:54:59;;;;;;;5.15;1.40;;;;;;;10.42;100.00;102410.00;5257984;28;20035;-78
2023/02/03 04:57:30;;;;;;;5.80;1.85;;;;;;;10.45;100.00;102417.69;5255786;28;20120;-77
2023/02/03 05:00:02;;;;;;;5.38;1.33;;;;;;;10.49;100.00;102415.72;5258076;28;20029;-77
2023/02/03 05:02:33;;;;;;;4.97;1.88;;;;;;;10.41;100.00;102421.41;5257149;28;20025;-77
2023/02/03 05:05:05;;;;;;;4.85;1.40;;;;;;;10.50;100.00;102406.94;5258134;28;20031;-77
2023/02/03 05:07:37;;;;;;;7.03;1.33;;;;;;;10.42;100.00;102396.91;5256848;28;20453;-77
2023/02/03 05:10:08;;;;;;;5.05;1.10;;;;;;;10.46;100.00;102392.34;5256035;28;20035;-77
2023/02/03 05:12:40;;;;;;;4.70;1.35;;;;;;;10.46;100.00;102385.31;5257360;28;20462;-77
2023/02/03 05:15:11;;;;;;;6.93;1.33;;;;;;;10.49;100.00;102397.38;5257456;28;20052;-78
2023/02/03 05:17:42;;;;;;;4.47;1.17;;;;;;;10.44;100.00;102397.66;5256536;28;20032;-78
2023/02/03 05:20:13;;;;;;;4.35;1.20;;;;;;;10.42;100.00;102391.66;5257086;28;20033;-78
2023/02/03 05:22:45;;;;;;;4.50;1.23;;;;;;;10.44;100.00;102405.50;5257706;28;20078;-77
2023/02/03 05:25:16;;;;;;;5.15;1.23;;;;;;;10.43;100.00;102414.31;5257079;28;20025;-78
2023/02/03 05:27:47;;;;;;;5.75;1.15;;;;;;;10.47;100.00;102414.97;5256705;28;20035;-77
2023/02/03 05:30:19;;;;;;;4.90;1.45;;;;;;;10.42;100.00;102415.25;5257503;28;20029;-77
2023/02/03 05:32:50;;;;;;;5.43;1.38;;;;;;;10.36;100.00;102414.75;5256938;28;20405;-77
2023/02/03 05:35:21;;;;;;;5.63;1.20;;;;;;;10.45;100.00;102433.41;5256636;28;20040;-78
2023/02/03 05:37:53;;;;;;;4.70;1.15;;;;;;;10.43;100.00;102444.91;5255736;28;20367;-78
2023/02/03 05:43:15;;;;;;;4.68;1.25;;;;;;;10.42;100.00;102425.72;5255574;28;20490;-77
2023/02/03 05:45:46;;;;;;;4.07;0.90;;;;;;;10.44;100.00;102441.34;5255712;28;20037;-77
2023/02/03 05:48:17;;;;;;;4.78;1.30;;;;;;;10.37;100.00;102434.78;5256784;28;20032;-77
2023/02/03 05:50:48;;;;;;;5.13;1.42;;;;;;;10.37;100.00;102445.25;5254851;28;20025;-77
2023/02/03 05:53:20;;;;;;;5.03;1.33;;;;;;;10.36;100.00;102440.97;5256665;28;20253;-78
2023/02/03 05:55:51;;;;;;;6.22;1.55;;;;;;;10.38;100.00;102439.06;5255648;28;20017;-77
2023/02/03 05:58:22;;;;;;;5.38;1.20;;;;;;;10.42;100.00;102438.84;5257407;28;20025;-77
2023/02/03 06:00:54;;;;;;;5.30;1.70;;;;;;;10.37;100.00;102443.47;5256507;28;20112;-77
2023/02/03 06:03:25;;;;;;;5.55;1.30;;;;;;;10.43;100.00;102447.53;5257045;28;20024;-78
2023/02/03 06:05:57;;;;;;;3.85;1.05;;;;;;;10.48;100.00;102435.84;5257392;28;20043;-77
2023/02/03 06:08:29;;;;;;;7.90;1.30;;;;;;;10.46;100.00;102449.97;5255282;28;20071;-78
2023/02/03 06:11:00;;;;;;;4.10;1.35;;;;;;;10.43;100.00;102442.28;5254604;28;20041;-77
2023/02/03 06:13:31;;;;;;;4.80;1.40;;;;;;;10.36;100.00;102415.59;5257159;28;20439;-77
2023/02/03 06:16:03;;;;;;;5.47;1.38;;;;;;;10.42;100.00;102432.75;5257420;28;20813;-77
2023/02/03 06:18:35;;;;;;;6.63;1.52;;;;;;;10.40;100.00;102438.06;5257243;28;20025;-78
2023/02/03 06:21:06;;;;;;;6.05;1.17;;;;;;;10.38;100.00;102439.06;5256348;28;20067;-78
2023/02/03 06:23:37;;;;;;;6.65;1.52;;;;;;;10.47;100.00;102428.91;5256800;28;20127;-77
2023/02/03 06:26:09;;;;;;;4.47;1.00;;;;;;;10.41;100.00;102442.38;5257109;28;20035;-77
2023/02/03 06:28:40;;;;;;;6.10;1.75;;;;;;;10.37;100.00;102446.09;5256251;28;20029;-77
2023/02/03 06:31:11;;;;;;;5.40;1.52;;;;;;;10.37;100.00;102440.84;5253393;28;20040;-78
2023/02/03 06:33:42;;;;;;;6.63;1.80;;;;;;;10.31;100.00;102443.00;5254528;28;20036;-78
2023/02/03 06:36:14;;;;;;;4.28;1.33;;;;;;;10.41;100.00;102438.91;5255176;28;20021;-78
2023/02/03 06:38:45;;;;;;;6.50;1.50;;;;;;;10.36;100.00;102431.31;5256655;28;20089;-78
2023/02/03 06:41:16;;;;;;;6.68;1.73;;;;;;;10.38;100.00;102421.59;5252470;28;20045;-77
2023/02/03 06:43:48;;;;;;;4.85;1.33;;;;;;;10.46;100.00;102429.03;5253539;28;20029;-78
2023/02/03 06:46:19;;;;;;;7.15;1.27;;;;;;;10.46;100.00;102429.84;5255661;28;20372;-78
2023/02/03 06:48:50;;;;;;;6.63;1.40;;;;;;;10.47;100.00;102422.84;5255447;28;20013;-78
2023/02/03 06:51:23;;;;;;;4.78;1.30;;;;;;;10.48;100.00;102433.22;5255004;28;20033;-78
2023/02/03 06:53:55;;;;;;;4.55;1.60;;;;;;;10.37;100.00;102421.69;5253293;28;20025;-77
2023/02/03 06:56:26;;;;;;;5.40;1.58;;;;;;;10.43;100.00;102432.66;5255801;28;20031;-78
2023/02/03 06:58:57;;;;;;;6.70;2.03;;;;;;;10.40;100.00;102430.19;5253905;28;20029;-77
2023/02/03 07:01:29;;;;;;;4.78;1.50;;;;;;;10.39;100.00;102409.34;5254731;28;20428;-78
2023/02/03 07:04:01;;;;;;;3.90;1.70;;;;;;;10.44;100.00;102426.47;5253843;28;20033;-77
2023/02/03 07:06:33;;;;;;;4.63;1.30;;;;;;;10.42;100.00;102425.72;5253980;28;20036;-77
2023/02/03 07:09:05;;;;;;;5.85;1.60;;;;;;;10.44;100.00;102447.44;5254887;28;20029;-77
2023/02/03 07:11:36;;;;;;;5.57;1.67;;;;;;;10.44;100.00;102441.34;5254079;28;20033;-78
2023/02/03 07:14:07;;;;;;;4.85;1.60;;;;;;;10.45;100.00;102446.53;5254983;28;20025;-77
2023/02/03 07:16:38;;;;;;;4.60;1.48;;;;;;;10.44;100.00;102455.28;5254604;28;20024;-78
2023/02/03 07:19:10;;;;;;;8.38;1.90;;;;;;;10.48;100.00;102461.19;5252859;28;20028;-77
2023/02/03 07:21:41;;;;;;;5.47;1.27;;;;;;;10.47;100.00;102477.84;5255105;28;20078;-77
2023/02/03 07:24:12;;;;;;;6.78;1.85;;;;;;;10.45;100.00;102456.13;5254608;28;20037;-76
2023/02/03 07:26:44;;;;;;;4.30;1.77;;;;;;;10.48;100.00;102456.78;5253396;28;20537;-77
2023/02/03 07:29:16;;;;;;;6.63;1.33;;;;;;;10.56;100.00;102471.22;5249019;28;20072;-77
2023/02/03 07:31:47;;;;;;;7.78;1.70;;;;;;;10.57;100.00;102454.56;5249143;28;20382;-78
2023/02/03 07:34:19;;;;;;;9.77;1.90;;;;;;;10.50;100.00;102469.00;5251766;28;20024;-78
2023/02/03 07:36:50;;;;;;;4.90;1.35;;;;;;;10.54;100.00;102467.88;5253108;28;20110;-77
2023/02/03 07:39:21;;;;;;;5.65;1.85;;;;;;;10.61;100.00;102469.19;5252665;28;20051;-78
2023/02/03 07:41:53;;;;;;;5.57;1.60;;;;;;;10.63;100.00;102472.56;5252363;28;20037;-76
2023/02/03 07:44:24;;;;;;;4.78;1.27;;;;;;;10.57;100.00;102465.03;5251597;28;20041;-79
2023/02/03 07:46:55;;;;;;;5.10;1.63;;;;;;;10.48;100.00;102475.13;5252533;28;20478;-77
2023/02/03 07:49:26;;;;;;;7.55;1.30;;;;;;;10.53;100.00;102474.03;5251640;28;20042;-77
2023/02/03 07:51:58;;;;;;;6.30;1.58;;;;;;;10.57;100.00;102472.91;5254586;28;20017;-77
2023/02/03 07:54:29;;;;;;;5.75;1.63;;;;;;;10.61;100.00;102469.19;5253051;28;20071;-77
2023/02/03 07:57:00;;;;;;;4.88;1.48;;;;;;;10.61;100.00;102471.81;5252692;28;20045;-78
2023/02/03 07:59:32;;;;;;;4.18;1.30;;;;;;;10.54;100.00;102480.97;5253035;28;20536;-77
2023/02/03 08:02:03;;;;;;;4.15;1.35;;;;;;;10.49;100.00;102478.59;5248692;28;20426;-79
2023/02/03 08:04:37;;;;;;;4.95;1.40;;;;;;;10.53;100.00;102489.75;5251706;28;20033;-77
2023/02/03 08:07:08;;;;;;;5.80;1.60;;;;;;;10.57;100.00;102481.63;5250710;28;20028;-77
2023/02/03 08:09:40;;;;;;;7.32;1.98;;;;;;;10.54;100.00;102476.56;5251143;28;20446;-77
2023/02/03 08:12:11;;;;;;;7.00;1.60;;;;;;;10.61;100.00;102484.94;5252291;28;20025;-77
2023/02/03 08:14:42;;;;;;;7.43;1.67;;;;;;;10.62;100.00;102494.47;5253778;28;20041;-77
2023/02/03 08:17:14;;;;;;;7.80;2.00;;;;;;;10.56;100.00;102479.09;5252709;28;20367;-77
2023/02/03 08:19:45;;;;;;;6.47;1.90;;;;;;;10.55;100.00;102490.50;5253186;28;20013;-77
2023/02/03 08:22:16;;;;;;;5.22;1.60;;;;;;;10.52;100.00;102495.94;5250196;28;20119;-77
2023/02/03 08:24:48;;;;;;;6.20;1.70;;;;;;;10.51;100.00;102507.34;5253089;28;20470;-77
2023/02/03 08:27:21;;;;;;;5.80;1.70;;;;;;;10.57;100.00;102507.84;5252408;28;20116;-77
2023/02/03 08:29:53;;;;;;;6.18;1.55;;;;;;;10.49;100.00;102494.31;5254946;28;20475;-78
2023/02/03 08:32:24;;;;;;;6.82;2.00;;;;;;;10.57;100.00;102505.22;5253993;28;20029;-77
2023/02/03 08:34:55;;;;;;;6.57;1.70;;;;;;;10.57;100.00;102514.84;5251090;28;20036;-77
2023/02/03 08:37:29;;;;;;;7.80;2.10;;;;;;;10.66;100.00;102509.91;5251998;28;20373;-78
2023/02/03 08:40:00;;;;;;;10.73;1.85;;;;;;;10.56;100.00;102506.13;5251781;28;20048;-77
2023/02/03 08:42:31;;;;;;;8.20;2.35;;;;;;;10.61;100.00;102527.69;5256277;28;20474;-78
2023/02/03 08:45:04;;;;;;;9.15;2.00;;;;;;;10.57;100.00;102522.69;5256991;28;20102;-77
2023/02/03 08:47:35;;;;;;;6.10;1.80;;;;;;;10.57;100.00;102530.56;5256349;28;20024;-78
2023/02/03 08:50:08;;;;;;;7.45;1.85;;;;;;;10.59;100.00;102539.19;5256590;28;20922;-77
2023/02/03 08:52:39;;;;;;;9.52;1.80;;;;;;;10.68;100.00;102542.13;5257356;28;20070;-77
2023/02/03 08:55:11;;;;;;;8.35;2.08;;;;;;;10.64;100.00;102540.59;5255763;28;20382;-77
2023/02/03 08:57:43;;;;;;;9.00;2.25;;;;;;;10.63;100.00;102532.84;5256172;28;20025;-78
2023/02/03 09:00:14;;;;;;;9.35;1.98;;;;;;;10.67;100.00;102536.97;5251833;28;20029;-77
2023/02/03 09:02:46;;;;;;;7.05;1.90;;;;;;;10.64;100.00;102539.75;5249154;28;20109;-77
2023/02/03 09:05:17;;;;;;;7.20;2.30;;;;;;;10.69;100.00;102532.50;5258175;28;20025;-77
2023/02/03 09:07:48;;;;;;;9.32;2.25;;;;;;;10.68;100.00;102536.91;5256408;28;20038;-77
2023/02/03 09:10:20;;;;;;;6.93;1.80;;;;;;;10.70;100.00;102534.19;5256770;28;20032;-78
2023/02/03 09:12:51;;;;;;;7.00;1.80;;;;;;;10.72;100.00;102532.31;5255569;28;20032;-77
2023/02/03 09:15:22;;;;;;;6.82;2.00;;;;;;;10.67;100.00;102529.94;5257138;28;20029;-77
2023/02/03 09:17:55;;;;;;;5.80;1.92;;;;;;;10.73;100.00;102534.00;5255047;28;20032;-77
2023/02/03 09:20:27;;;;;;;9.98;2.05;;;;;;;10.73;100.00;102539.25;5255575;28;20091;-78
2023/02/03 09:22:59;;;;;;;8.70;2.30;;;;;;;10.69;100.00;102528.09;5256148;28;20565;-78
2023/02/03 09:25:31;;;;;;;10.48;2.17;;;;;;;10.64;100.00;102529.28;5255154;28;20037;-78
2023/02/03 09:28:03;;;;;;;8.83;2.40;;;;;;;10.68;100.00;102541.28;5251988;28;20029;-78
2023/02/03 09:30:34;;;;;;;10.35;2.35;;;;;;;10.70;100.00;102540.25;5254094;28;20344;-78
2023/02/03 09:33:05;;;;;;;6.63;2.08;;;;;;;10.72;100.00;102542.81;5257524;28;20040;-78
2023/02/03 09:35:37;;;;;;;9.55;2.47;;;;;;;10.78;100.00;102555.53;5252071;28;20032;-79
2023/02/03 09:38:09;;;;;;;7.93;2.05;;;;;;;10.77;100.00;102553.03;5255301;28;20112;-78
2023/02/03 09:40:40;;;;;;;13.30;2.58;;;;;;;10.78;100.00;102558.16;5255275;28;20404;-78
2023/02/03 09:43:50;;;;;;;9.52;2.15;;;;;;;10.92;100.00;102570.47;5255625;28;20056;-79
2023/02/03 09:46:32;;;;;;;10.95;1.80;;;;;;;10.93;100.00;102572.16;5234366;28;20053;-78
2023/02/03 09:49:12;;;;;;;9.10;2.13;;;;;;;10.83;100.00;102571.00;5255854;28;20470;-78
2023/02/03 09:51:50;;;;;;;9.20;2.20;;;;;;;10.72;100.00;102558.53;5254846;28;20481;-79
2023/02/03 09:54:42;;;;;;;8.93;2.45;;;;;;;10.79;100.00;102582.59;5255479;28;20040;-79
2023/02/03 09:57:43;;;;;;;5.70;2.00;;;;;;;11.04;100.00;102574.16;5255765;28;20036;-78
2023/02/03 10:00:25;;;;;;;9.70;2.30;;;;;;;10.89;100.00;102583.75;5255182;28;20074;-80
2023/02/03 10:03:15;;;;;;;8.55;2.28;;;;;;;10.95;100.00;102578.16;5255353;28;20394;-77
2023/02/03 10:05:56;;;;;;;7.65;2.22;;;;;;;10.93;100.00;102572.16;5255347;28;20033;-78
2023/02/03 10:08:47;;;;;;;9.63;2.10;;;;;;;11.11;100.00;102588.59;5271100;28;20037;-78
2023/02/03 10:11:28;;;;;;;7.32;2.42;;;;;;;11.06;100.00;102583.63;5253677;28;20021;-79
2023/02/03 10:14:24;;;;;;;6.57;1.85;;;;;;;11.19;100.00;102574.06;5253236;28;20037;-78
2023/02/03 10:17:17;;;;;;;9.73;2.13;;;;;;;11.04;100.00;102558.41;5255469;28;20103;-79
2023/02/03 10:19:59;;;;;;;14.55;2.67;;;;;;;11.15;100.00;102550.75;5254900;28;20024;-79
2023/02/03 10:22:36;;;;;;;9.80;2.28;;;;;;;11.17;100.00;102572.47;5253157;28;20032;-79
2023/02/03 10:25:19;;;;;;;9.38;2.17;;;;;;;11.29;100.00;102591.88;5253682;28;20024;-78
2023/02/03 10:27:58;;;;;;;7.53;1.90;;;;;;;11.29;100.00;102574.38;5247354;28;21000;-77
2023/02/03 10:30:44;;;;;;;9.90;2.78;;;;;;;11.31;100.00;102584.78;5251565;28;20025;-79
2023/02/03 10:33:18;;;;;;;10.02;2.60;;;;;;;11.26;100.00;102578.97;5251062;28;20486;-78
2023/02/03 10:36:25;;;;;;;9.48;2.00;;;;;;;11.49;100.00;102562.66;5249812;28;20387;-78
2023/02/03 10:39:11;;;;;;;9.77;2.85;;;;;;;11.52;100.00;102556.41;5250189;28;20037;-79
2023/02/03 10:41:42;;;;;;;10.80;2.40;;;;;;;11.29;100.00;102561.25;5250891;28;20585;-78
2023/02/03 10:44:14;;;;;;;10.35;2.35;;;;;;;11.34;100.00;102561.81;5250289;28;20028;-78
2023/02/03 10:46:45;;;;;;;8.75;2.28;;;;;;;11.31;100.00;102567.25;5250717;28;20435;-79
2023/02/03 10:49:18;;;;;;;7.38;2.10;;;;;;;11.39;100.00;102578.13;5251522;28;20020;-79
2023/02/03 10:51:50;;;;;;;6.47;2.05;;;;;;;11.48;100.00;102568.88;5250410;28;20048;-78
2023/02/03 10:54:28;;;;;;;8.88;2.53;;;;;;;11.47;100.00;102556.66;5250507;28;20453;-78
2023/02/03 10:57:11;;;;;;;8.68;2.42;;;;;;;11.62;100.00;102560.13;5251273;28;20086;-78
2023/02/03 10:59:45;;;;;;;7.50;2.20;;;;;;;11.58;100.00;102563.88;5250583;28;20023;-79
2023/02/03 11:02:27;;;;;;;7.75;2.05;;;;;;;11.58;100.00;102561.25;5250602;28;20084;-79
2023/02/03 11:05:18;;;;;;;8.88;2.10;;;;;;;11.82;100.00;102558.88;5250639;28;20037;-79
2023/02/03 11:07:51;;;;;;;11.30;2.25;;;;;;;11.45;100.00;102569.03;5251647;28;20077;-79
2023/02/03 11:10:28;;;;;;;13.32;2.60;;;;;;;11.64;100.00;102579.25;5251351;28;21103;-78
2023/02/03 11:13:20;;;;;;;9.95;2.55;;;;;;;11.69;100.00;102578.03;5251948;28;20115;-78
2023/02/03 11:15:55;;;;;;;7.60;2.53;;;;;;;11.49;100.00;102575.78;5250862;28;20074;-78
2023/02/03 11:18:38;;;;;;;7.68;2.33;;;;;;;11.65;100.00;102583.56;5251368;28;20405;-78
2023/02/03 11:21:16;;;;;;;10.25;1.80;;;;;;;11.68;100.00;102583.38;5251589;28;20025;-79
2023/02/03 11:24:15;;;;;;;10.43;2.42;;;;;;;11.68;100.00;102605.22;5251137;28;20035;-78
2023/02/03 11:26:55;;;;;;;9.68;2.60;;;;;;;11.78;100.00;102581.03;5252273;28;20032;-79
2023/02/03 11:29:33;;;;;;;8.63;1.88;;;;;;;11.72;100.00;102578.78;5250024;28;20040;-78
2023/02/03 11:32:26;;;;;;;8.93;2.15;;;;;;;11.82;100.00;102562.38;5253198;28;20017;-79
2023/02/03 11:35:01;;;;;;;9.43;2.20;;;;;;;11.75;100.00;102574.19;5247079;28;20071;-79
2023/02/03 11:37:44;;;;;;;7.25;2.30;;;;;;;11.87;100.00;102583.97;5251048;28;20060;-79
2023/02/03 11:40:16;;;;;;;12.30;2.38;;;;;;;11.79;100.00;102583.56;5251259;28;20307;-79
2023/02/03 11:42:48;;;;;;;11.07;2.65;;;;;;;11.77;100.00;102574.94;5250644;28;21056;-78
2023/02/03 11:45:25;;;;;;;16.17;2.67;;;;;;;11.77;100.00;102585.44;5251106;28;20175;-78
2023/02/03 11:48:01;;;;;;;9.35;2.35;;;;;;;11.84;100.00;102578.91;5251490;28;20032;-78
2023/02/03 11:50:54;;;;;;;10.48;1.85;;;;;;;11.78;100.00;102576.63;5248506;28;20436;-78
2023/02/03 11:53:55;;;;;;;7.70;2.10;;;;;;;11.98;100.00;102585.91;5250630;28;20140;-78
2023/02/03 11:56:45;;;;;;;11.45;2.70;;;;;;;11.89;100.00;102584.72;5250791;28;20060;-79
2023/02/03 11:59:54;;;;;;;9.73;1.75;;;;;;;12.01;100.00;102592.75;5250906;28;20033;-79